sensor_id;sensor_type;location;lat;lon;timestamp;P1;durP1;ratioP1;P2;durP2;ratioP2
177;SDS011;77;48.792;9.032;2023-06-22T00:00:40;18.60;;;9.20;;
177;SDS011;77;48.792;9.032;2023-06-22T00:03:05;16.57;;;10.03;;
177;SDS011;77;48.792;9.032;2023-06-22T00:05:30;16.90;;;10.57;;
177;SDS011;77;48.792;9.032;2023-06-22T00:07:55;16.13;;;10.07;;
177;SDS011;77;48.792;9.032;2023-06-22T00:10:22;18.60;;;11.17;;
177;SDS011;77;48.792;9.032;2023-06-22T00:12:47;15.93;;;10.47;;
177;SDS011;77;48.792;9.032;2023-06-22T00:15:12;16.23;;;10.50;;
177;SDS011;77;48.792;9.032;2023-06-22T00:17:37;16.53;;;10.10;;
177;SDS011;77;48.792;9.032;2023-06-22T00:20:03;19.70;;;11.37;;
177;SDS011;77;48.792;9.032;2023-06-22T00:22:28;17.63;;;10.80;;
177;SDS011;77;48.792;9.032;2023-06-22T00:24:53;19.53;;;10.50;;
177;SDS011;77;48.792;9.032;2023-06-22T00:27:20;15.30;;;10.07;;
177;SDS011;77;48.792;9.032;2023-06-22T00:29:45;16.37;;;9.80;;
177;SDS011;77;48.792;9.032;2023-06-22T00:32:10;18.53;;;10.10;;
177;SDS011;77;48.792;9.032;2023-06-22T00:34:35;15.60;;;9.60;;
177;SDS011;77;48.792;9.032;2023-06-22T00:37:00;14.80;;;9.37;;
177;SDS011;77;48.792;9.032;2023-06-22T00:39:25;14.63;;;9.20;;
177;SDS011;77;48.792;9.032;2023-06-22T00:41:51;17.83;;;10.27;;
177;SDS011;77;48.792;9.032;2023-06-22T00:44:17;18.37;;;10.00;;
177;SDS011;77;48.792;9.032;2023-06-22T00:46:42;16.53;;;9.73;;
177;SDS011;77;48.792;9.032;2023-06-22T00:49:08;14.97;;;9.50;;
177;SDS011;77;48.792;9.032;2023-06-22T00:51:33;17.97;;;9.33;;
177;SDS011;77;48.792;9.032;2023-06-22T00:53:58;15.53;;;9.63;;
177;SDS011;77;48.792;9.032;2023-06-22T00:56:23;17.10;;;9.77;;
177;SDS011;77;48.792;9.032;2023-06-22T00:58:49;16.70;;;10.37;;
177;SDS011;77;48.792;9.032;2023-06-22T01:01:16;14.23;;;9.90;;
177;SDS011;77;48.792;9.032;2023-06-22T01:03:41;15.47;;;10.30;;
177;SDS011;77;48.792;9.032;2023-06-22T01:06:07;17.37;;;10.40;;
177;SDS011;77;48.792;9.032;2023-06-22T01:08:34;15.93;;;10.10;;
177;SDS011;77;48.792;9.032;2023-06-22T01:11:04;14.53;;;10.07;;
177;SDS011;77;48.792;9.032;2023-06-22T01:13:32;17.40;;;10.40;;
177;SDS011;77;48.792;9.032;2023-06-22T01:16:00;19.40;;;9.90;;
177;SDS011;77;48.792;9.032;2023-06-22T01:18:28;19.53;;;10.53;;
177;SDS011;77;48.792;9.032;2023-06-22T01:20:53;20.60;;;10.53;;
177;SDS011;77;48.792;9.032;2023-06-22T01:23:21;18.33;;;10.73;;
177;SDS011;77;48.792;9.032;2023-06-22T01:25:53;18.57;;;10.30;;
177;SDS011;77;48.792;9.032;2023-06-22T01:28:24;19.70;;;10.50;;
177;SDS011;77;48.792;9.032;2023-06-22T01:30:52;17.90;;;10.60;;
177;SDS011;77;48.792;9.032;2023-06-22T01:33:17;20.83;;;10.57;;
177;SDS011;77;48.792;9.032;2023-06-22T01:35:43;17.00;;;10.30;;
177;SDS011;77;48.792;9.032;2023-06-22T01:38:09;17.63;;;10.30;;
177;SDS011;77;48.792;9.032;2023-06-22T01:40:34;18.70;;;10.10;;
177;SDS011;77;48.792;9.032;2023-06-22T01:43:00;18.63;;;10.70;;
177;SDS011;77;48.792;9.032;2023-06-22T01:45:25;14.67;;;9.70;;
177;SDS011;77;48.792;9.032;2023-06-22T01:47:52;16.20;;;10.27;;
177;SDS011;77;48.792;9.032;2023-06-22T01:50:18;15.50;;;10.07;;
177;SDS011;77;48.792;9.032;2023-06-22T01:52:43;18.10;;;9.93;;
177;SDS011;77;48.792;9.032;2023-06-22T01:55:08;19.00;;;10.37;;
177;SDS011;77;48.792;9.032;2023-06-22T01:57:33;17.23;;;11.00;;
177;SDS011;77;48.792;9.032;2023-06-22T02:00:00;18.30;;;10.70;;
177;SDS011;77;48.792;9.032;2023-06-22T02:02:26;16.50;;;10.30;;
177;SDS011;77;48.792;9.032;2023-06-22T02:04:55;16.97;;;10.53;;
177;SDS011;77;48.792;9.032;2023-06-22T02:07:21;18.57;;;10.30;;
177;SDS011;77;48.792;9.032;2023-06-22T02:09:48;16.93;;;11.13;;
177;SDS011;77;48.792;9.032;2023-06-22T02:12:18;17.57;;;11.40;;
177;SDS011;77;48.792;9.032;2023-06-22T02:14:45;16.07;;;10.70;;
177;SDS011;77;48.792;9.032;2023-06-22T02:17:11;18.37;;;11.40;;
177;SDS011;77;48.792;9.032;2023-06-22T02:19:36;19.07;;;11.63;;
177;SDS011;77;48.792;9.032;2023-06-22T02:22:03;21.80;;;11.70;;
177;SDS011;77;48.792;9.032;2023-06-22T02:24:28;19.90;;;11.93;;
177;SDS011;77;48.792;9.032;2023-06-22T02:26:53;19.50;;;11.83;;
177;SDS011;77;48.792;9.032;2023-06-22T02:29:19;18.47;;;11.20;;
177;SDS011;77;48.792;9.032;2023-06-22T02:31:44;18.80;;;11.90;;
177;SDS011;77;48.792;9.032;2023-06-22T02:34:09;17.20;;;11.13;;
177;SDS011;77;48.792;9.032;2023-06-22T02:36:34;19.60;;;11.50;;
177;SDS011;77;48.792;9.032;2023-06-22T02:39:01;16.70;;;11.20;;
177;SDS011;77;48.792;9.032;2023-06-22T02:41:26;18.07;;;11.93;;
177;SDS011;77;48.792;9.032;2023-06-22T02:43:51;18.23;;;11.93;;
177;SDS011;77;48.792;9.032;2023-06-22T02:46:16;18.00;;;11.47;;
177;SDS011;77;48.792;9.032;2023-06-22T02:48:41;18.70;;;11.70;;
177;SDS011;77;48.792;9.032;2023-06-22T02:51:07;17.07;;;11.30;;
177;SDS011;77;48.792;9.032;2023-06-22T02:53:32;18.90;;;11.30;;
177;SDS011;77;48.792;9.032;2023-06-22T02:55:59;17.90;;;12.00;;
177;SDS011;77;48.792;9.032;2023-06-22T02:58:24;20.23;;;11.63;;
177;SDS011;77;48.792;9.032;2023-06-22T03:00:49;20.70;;;12.73;;
177;SDS011;77;48.792;9.032;2023-06-22T03:03:14;20.13;;;12.20;;
177;SDS011;77;48.792;9.032;2023-06-22T03:05:39;20.53;;;13.03;;
177;SDS011;77;48.792;9.032;2023-06-22T03:08:05;19.30;;;12.83;;
177;SDS011;77;48.792;9.032;2023-06-22T03:10:30;19.83;;;12.63;;
177;SDS011;77;48.792;9.032;2023-06-22T03:12:56;19.07;;;12.70;;
177;SDS011;77;48.792;9.032;2023-06-22T03:15:21;20.37;;;12.60;;
177;SDS011;77;48.792;9.032;2023-06-22T03:17:47;21.80;;;12.23;;
177;SDS011;77;48.792;9.032;2023-06-22T03:20:12;21.83;;;12.13;;
177;SDS011;77;48.792;9.032;2023-06-22T03:22:37;15.53;;;11.03;;
177;SDS011;77;48.792;9.032;2023-06-22T03:25:02;25.33;;;12.60;;
177;SDS011;77;48.792;9.032;2023-06-22T03:27:28;18.67;;;11.93;;
177;SDS011;77;48.792;9.032;2023-06-22T03:29:56;18.43;;;11.90;;
177;SDS011;77;48.792;9.032;2023-06-22T03:32:21;20.83;;;11.90;;
177;SDS011;77;48.792;9.032;2023-06-22T03:34:46;21.47;;;12.50;;
177;SDS011;77;48.792;9.032;2023-06-22T03:37:11;18.43;;;12.00;;
177;SDS011;77;48.792;9.032;2023-06-22T03:39:36;23.33;;;12.97;;
177;SDS011;77;48.792;9.032;2023-06-22T03:42:02;17.97;;;12.20;;
177;SDS011;77;48.792;9.032;2023-06-22T03:44:27;18.30;;;11.83;;
177;SDS011;77;48.792;9.032;2023-06-22T03:46:53;23.17;;;11.00;;
177;SDS011;77;48.792;9.032;2023-06-22T03:49:19;20.13;;;12.37;;
177;SDS011;77;48.792;9.032;2023-06-22T03:51:44;20.20;;;11.30;;
177;SDS011;77;48.792;9.032;2023-06-22T03:54:09;18.77;;;11.80;;
177;SDS011;77;48.792;9.032;2023-06-22T03:56:34;19.50;;;11.70;;
177;SDS011;77;48.792;9.032;2023-06-22T03:58:59;17.83;;;11.50;;
177;SDS011;77;48.792;9.032;2023-06-22T04:01:24;20.87;;;11.80;;
177;SDS011;77;48.792;9.032;2023-06-22T04:03:51;18.10;;;11.33;;
177;SDS011;77;48.792;9.032;2023-06-22T04:06:16;19.60;;;11.40;;
177;SDS011;77;48.792;9.032;2023-06-22T04:08:41;17.43;;;10.90;;
177;SDS011;77;48.792;9.032;2023-06-22T04:11:06;17.70;;;11.13;;
177;SDS011;77;48.792;9.032;2023-06-22T04:13:32;16.90;;;10.83;;
177;SDS011;77;48.792;9.032;2023-06-22T04:15:57;16.63;;;10.40;;
177;SDS011;77;48.792;9.032;2023-06-22T04:18:22;18.10;;;11.07;;
177;SDS011;77;48.792;9.032;2023-06-22T04:20:49;16.23;;;10.10;;
177;SDS011;77;48.792;9.032;2023-06-22T04:23:14;16.50;;;10.60;;
177;SDS011;77;48.792;9.032;2023-06-22T04:25:39;18.57;;;11.13;;
177;SDS011;77;48.792;9.032;2023-06-22T04:28:04;17.47;;;10.70;;
177;SDS011;77;48.792;9.032;2023-06-22T04:30:29;17.57;;;10.70;;
177;SDS011;77;48.792;9.032;2023-06-22T04:32:55;17.33;;;10.40;;
177;SDS011;77;48.792;9.032;2023-06-22T04:35:21;19.07;;;10.70;;
177;SDS011;77;48.792;9.032;2023-06-22T04:37:48;20.50;;;11.80;;
177;SDS011;77;48.792;9.032;2023-06-22T04:40:13;17.67;;;11.20;;
177;SDS011;77;48.792;9.032;2023-06-22T04:42:38;18.67;;;11.20;;
177;SDS011;77;48.792;9.032;2023-06-22T04:45:04;17.70;;;11.13;;
177;SDS011;77;48.792;9.032;2023-06-22T04:47:29;19.63;;;11.53;;
177;SDS011;77;48.792;9.032;2023-06-22T04:49:54;16.87;;;10.67;;
177;SDS011;77;48.792;9.032;2023-06-22T04:52:19;19.43;;;10.90;;
177;SDS011;77;48.792;9.032;2023-06-22T04:54:46;16.40;;;10.73;;
177;SDS011;77;48.792;9.032;2023-06-22T04:57:11;18.23;;;11.27;;
177;SDS011;77;48.792;9.032;2023-06-22T04:59:37;18.60;;;11.13;;
177;SDS011;77;48.792;9.032;2023-06-22T05:02:02;21.33;;;9.93;;
177;SDS011;77;48.792;9.032;2023-06-22T05:04:28;17.90;;;10.47;;
177;SDS011;77;48.792;9.032;2023-06-22T05:06:54;16.87;;;10.80;;
177;SDS011;77;48.792;9.032;2023-06-22T05:09:19;20.40;;;11.47;;
177;SDS011;77;48.792;9.032;2023-06-22T05:11:46;28.07;;;10.93;;
177;SDS011;77;48.792;9.032;2023-06-22T05:14:11;18.47;;;10.97;;
177;SDS011;77;48.792;9.032;2023-06-22T05:16:37;17.50;;;11.00;;
177;SDS011;77;48.792;9.032;2023-06-22T05:19:02;19.10;;;10.83;;
177;SDS011;77;48.792;9.032;2023-06-22T05:21:27;16.60;;;10.13;;
177;SDS011;77;48.792;9.032;2023-06-22T05:23:53;16.50;;;10.50;;
177;SDS011;77;48.792;9.032;2023-06-22T05:26:18;20.20;;;10.27;;
177;SDS011;77;48.792;9.032;2023-06-22T05:28:45;17.33;;;10.70;;
177;SDS011;77;48.792;9.032;2023-06-22T05:31:10;16.10;;;10.70;;
177;SDS011;77;48.792;9.032;2023-06-22T05:33:35;17.97;;;10.90;;
177;SDS011;77;48.792;9.032;2023-06-22T05:36:00;20.20;;;10.57;;
177;SDS011;77;48.792;9.032;2023-06-22T05:38:25;20.03;;;10.60;;
177;SDS011;77;48.792;9.032;2023-06-22T05:40:51;19.10;;;9.60;;
177;SDS011;77;48.792;9.032;2023-06-22T05:43:16;16.27;;;9.67;;
177;SDS011;77;48.792;9.032;2023-06-22T05:45:42;18.33;;;10.27;;
177;SDS011;77;48.792;9.032;2023-06-22T05:48:07;15.43;;;10.10;;
177;SDS011;77;48.792;9.032;2023-06-22T05:50:33;15.23;;;9.80;;
177;SDS011;77;48.792;9.032;2023-06-22T05:52:58;16.70;;;10.27;;
177;SDS011;77;48.792;9.032;2023-06-22T05:55:23;18.30;;;9.43;;
177;SDS011;77;48.792;9.032;2023-06-22T05:57:48;16.27;;;10.00;;
177;SDS011;77;48.792;9.032;2023-06-22T06:00:14;18.93;;;9.30;;
177;SDS011;77;48.792;9.032;2023-06-22T06:02:40;20.60;;;9.80;;
177;SDS011;77;48.792;9.032;2023-06-22T06:05:05;14.20;;;8.60;;
177;SDS011;77;48.792;9.032;2023-06-22T06:07:31;17.53;;;10.13;;
177;SDS011;77;48.792;9.032;2023-06-22T06:09:56;14.50;;;9.17;;
177;SDS011;77;48.792;9.032;2023-06-22T06:12:21;19.73;;;9.80;;
177;SDS011;77;48.792;9.032;2023-06-22T06:14:46;15.73;;;8.93;;
177;SDS011;77;48.792;9.032;2023-06-22T06:17:11;18.30;;;8.87;;
177;SDS011;77;48.792;9.032;2023-06-22T06:19:38;22.40;;;10.00;;
177;SDS011;77;48.792;9.032;2023-06-22T06:22:03;16.97;;;9.90;;
177;SDS011;77;48.792;9.032;2023-06-22T06:24:28;17.20;;;9.90;;
177;SDS011;77;48.792;9.032;2023-06-22T06:26:53;13.50;;;8.90;;
177;SDS011;77;48.792;9.032;2023-06-22T06:29:19;14.77;;;8.60;;
177;SDS011;77;48.792;9.032;2023-06-22T06:31:44;15.23;;;9.30;;
177;SDS011;77;48.792;9.032;2023-06-22T06:34:09;17.00;;;9.40;;
177;SDS011;77;48.792;9.032;2023-06-22T06:36:35;15.23;;;8.60;;
177;SDS011;77;48.792;9.032;2023-06-22T06:39:01;13.70;;;8.53;;
177;SDS011;77;48.792;9.032;2023-06-22T06:41:26;15.30;;;8.93;;
177;SDS011;77;48.792;9.032;2023-06-22T06:43:51;14.83;;;8.50;;
177;SDS011;77;48.792;9.032;2023-06-22T06:46:16;14.23;;;8.10;;
177;SDS011;77;48.792;9.032;2023-06-22T06:48:41;20.70;;;9.03;;
177;SDS011;77;48.792;9.032;2023-06-22T06:51:07;14.03;;;8.70;;
177;SDS011;77;48.792;9.032;2023-06-22T06:53:33;15.50;;;8.30;;
177;SDS011;77;48.792;9.032;2023-06-22T06:55:58;17.40;;;9.13;;
177;SDS011;77;48.792;9.032;2023-06-22T06:58:23;17.90;;;8.17;;
177;SDS011;77;48.792;9.032;2023-06-22T07:00:49;17.27;;;9.00;;
177;SDS011;77;48.792;9.032;2023-06-22T07:03:14;16.10;;;8.53;;
177;SDS011;77;48.792;9.032;2023-06-22T07:05:39;15.20;;;8.40;;
177;SDS011;77;48.792;9.032;2023-06-22T07:08:04;18.10;;;8.93;;
177;SDS011;77;48.792;9.032;2023-06-22T07:10:31;14.00;;;8.03;;
177;SDS011;77;48.792;9.032;2023-06-22T07:12:56;16.90;;;8.53;;
177;SDS011;77;48.792;9.032;2023-06-22T07:15:21;18.77;;;7.67;;
177;SDS011;77;48.792;9.032;2023-06-22T07:17:46;17.57;;;8.13;;
177;SDS011;77;48.792;9.032;2023-06-22T07:20:11;14.63;;;7.43;;
177;SDS011;77;48.792;9.032;2023-06-22T07:22:37;14.77;;;8.03;;
177;SDS011;77;48.792;9.032;2023-06-22T07:25:02;14.03;;;7.43;;
177;SDS011;77;48.792;9.032;2023-06-22T07:27:29;12.80;;;7.30;;
177;SDS011;77;48.792;9.032;2023-06-22T07:29:54;13.07;;;7.30;;
177;SDS011;77;48.792;9.032;2023-06-22T07:32:19;12.90;;;7.47;;
177;SDS011;77;48.792;9.032;2023-06-22T07:34:44;13.70;;;7.27;;
177;SDS011;77;48.792;9.032;2023-06-22T07:37:09;21.60;;;7.50;;
177;SDS011;77;48.792;9.032;2023-06-22T07:39:34;17.03;;;7.47;;
177;SDS011;77;48.792;9.032;2023-06-22T07:42:00;19.00;;;7.10;;
177;SDS011;77;48.792;9.032;2023-06-22T07:44:26;14.70;;;7.50;;
177;SDS011;77;48.792;9.032;2023-06-22T07:46:51;14.83;;;7.20;;
177;SDS011;77;48.792;9.032;2023-06-22T07:49:17;16.77;;;7.20;;
177;SDS011;77;48.792;9.032;2023-06-22T07:51:42;14.10;;;8.33;;
177;SDS011;77;48.792;9.032;2023-06-22T07:54:08;17.03;;;7.20;;
177;SDS011;77;48.792;9.032;2023-06-22T07:56:33;13.77;;;7.80;;
177;SDS011;77;48.792;9.032;2023-06-22T07:58:59;13.10;;;7.63;;
177;SDS011;77;48.792;9.032;2023-06-22T08:01:25;12.90;;;7.40;;
177;SDS011;77;48.792;9.032;2023-06-22T08:03:50;14.03;;;7.50;;
177;SDS011;77;48.792;9.032;2023-06-22T08:06:15;15.20;;;7.47;;
177;SDS011;77;48.792;9.032;2023-06-22T08:08:41;16.77;;;7.60;;
177;SDS011;77;48.792;9.032;2023-06-22T08:11:06;15.50;;;7.37;;
177;SDS011;77;48.792;9.032;2023-06-22T08:13:31;13.10;;;7.00;;
177;SDS011;77;48.792;9.032;2023-06-22T08:15:56;15.80;;;7.60;;
177;SDS011;77;48.792;9.032;2023-06-22T08:18:23;14.30;;;6.67;;
177;SDS011;77;48.792;9.032;2023-06-22T08:20:48;16.17;;;7.73;;
177;SDS011;77;48.792;9.032;2023-06-22T08:23:13;14.57;;;7.20;;
177;SDS011;77;48.792;9.032;2023-06-22T08:25:39;15.43;;;7.10;;
177;SDS011;77;48.792;9.032;2023-06-22T08:28:04;14.60;;;7.00;;
177;SDS011;77;48.792;9.032;2023-06-22T08:30:29;13.27;;;7.43;;
177;SDS011;77;48.792;9.032;2023-06-22T08:32:54;14.03;;;7.63;;
177;SDS011;77;48.792;9.032;2023-06-22T08:35:21;17.83;;;7.43;;
177;SDS011;77;48.792;9.032;2023-06-22T08:37:46;13.70;;;6.83;;
177;SDS011;77;48.792;9.032;2023-06-22T08:40:11;14.87;;;7.03;;
177;SDS011;77;48.792;9.032;2023-06-22T08:42:37;16.67;;;7.83;;
177;SDS011;77;48.792;9.032;2023-06-22T08:45:02;11.37;;;6.70;;
177;SDS011;77;48.792;9.032;2023-06-22T08:47:27;14.80;;;6.80;;
177;SDS011;77;48.792;9.032;2023-06-22T08:49:53;17.90;;;7.50;;
177;SDS011;77;48.792;9.032;2023-06-22T08:52:19;15.70;;;7.07;;
177;SDS011;77;48.792;9.032;2023-06-22T08:54:44;14.90;;;7.10;;
177;SDS011;77;48.792;9.032;2023-06-22T08:57:10;15.10;;;7.40;;
177;SDS011;77;48.792;9.032;2023-06-22T08:59:35;16.43;;;7.10;;
177;SDS011;77;48.792;9.032;2023-06-22T09:02:00;16.07;;;7.00;;
177;SDS011;77;48.792;9.032;2023-06-22T09:04:25;15.63;;;6.53;;
177;SDS011;77;48.792;9.032;2023-06-22T09:06:50;15.07;;;6.83;;
177;SDS011;77;48.792;9.032;2023-06-22T09:09:17;16.87;;;7.53;;
177;SDS011;77;48.792;9.032;2023-06-22T09:11:42;12.53;;;7.10;;
177;SDS011;77;48.792;9.032;2023-06-22T09:14:08;13.43;;;6.93;;
177;SDS011;77;48.792;9.032;2023-06-22T09:16:33;12.87;;;7.13;;
177;SDS011;77;48.792;9.032;2023-06-22T09:18:58;21.50;;;7.10;;
177;SDS011;77;48.792;9.032;2023-06-22T09:21:23;14.00;;;7.00;;
177;SDS011;77;48.792;9.032;2023-06-22T09:23:49;28.73;;;7.60;;
177;SDS011;77;48.792;9.032;2023-06-22T09:26:15;17.90;;;7.50;;
177;SDS011;77;48.792;9.032;2023-06-22T09:28:40;25.83;;;8.03;;
177;SDS011;77;48.792;9.032;2023-06-22T09:31:06;16.90;;;8.13;;
177;SDS011;77;48.792;9.032;2023-06-22T09:33:31;15.63;;;7.43;;
177;SDS011;77;48.792;9.032;2023-06-22T09:35:56;14.33;;;7.57;;
177;SDS011;77;48.792;9.032;2023-06-22T09:38:21;15.53;;;7.60;;
177;SDS011;77;48.792;9.032;2023-06-22T09:40:46;23.60;;;7.97;;
177;SDS011;77;48.792;9.032;2023-06-22T09:43:13;18.43;;;7.67;;
177;SDS011;77;48.792;9.032;2023-06-22T09:45:38;20.50;;;7.67;;
177;SDS011;77;48.792;9.032;2023-06-22T09:48:03;14.90;;;7.47;;
177;SDS011;77;48.792;9.032;2023-06-22T09:50:29;17.73;;;6.90;;
177;SDS011;77;48.792;9.032;2023-06-22T09:52:54;22.73;;;8.20;;
177;SDS011;77;48.792;9.032;2023-06-22T09:55:19;14.23;;;7.17;;
177;SDS011;77;48.792;9.032;2023-06-22T09:57:44;16.93;;;7.50;;
177;SDS011;77;48.792;9.032;2023-06-22T10:00:11;17.00;;;7.30;;
177;SDS011;77;48.792;9.032;2023-06-22T10:02:37;20.50;;;8.50;;
177;SDS011;77;48.792;9.032;2023-06-22T10:05:02;17.57;;;8.17;;
177;SDS011;77;48.792;9.032;2023-06-22T10:07:27;22.70;;;8.03;;
177;SDS011;77;48.792;9.032;2023-06-22T10:09:53;14.43;;;7.07;;
177;SDS011;77;48.792;9.032;2023-06-22T10:12:18;19.17;;;7.97;;
177;SDS011;77;48.792;9.032;2023-06-22T10:14:43;16.37;;;7.70;;
177;SDS011;77;48.792;9.032;2023-06-22T10:17:09;15.63;;;7.00;;
177;SDS011;77;48.792;9.032;2023-06-22T10:19:34;18.80;;;7.00;;
177;SDS011;77;48.792;9.032;2023-06-22T10:22:00;16.30;;;7.60;;
177;SDS011;77;48.792;9.032;2023-06-22T10:24:25;16.53;;;7.87;;
177;SDS011;77;48.792;9.032;2023-06-22T10:26:50;16.75;;;7.13;;
177;SDS011;77;48.792;9.032;2023-06-22T10:29:15;17.63;;;7.67;;
177;SDS011;77;48.792;9.032;2023-06-22T10:31:40;22.73;;;8.10;;
177;SDS011;77;48.792;9.032;2023-06-22T10:34:07;16.27;;;7.57;;
177;SDS011;77;48.792;9.032;2023-06-22T10:36:32;16.83;;;7.70;;
177;SDS011;77;48.792;9.032;2023-06-22T10:38:57;17.77;;;7.50;;
177;SDS011;77;48.792;9.032;2023-06-22T10:41:22;15.13;;;7.47;;
177;SDS011;77;48.792;9.032;2023-06-22T10:43:47;19.43;;;7.50;;
177;SDS011;77;48.792;9.032;2023-06-22T10:46:13;14.60;;;6.93;;
177;SDS011;77;48.792;9.032;2023-06-22T10:48:38;25.07;;;7.53;;
177;SDS011;77;48.792;9.032;2023-06-22T10:51:04;25.20;;;7.53;;
177;SDS011;77;48.792;9.032;2023-06-22T10:53:29;13.80;;;7.47;;
177;SDS011;77;48.792;9.032;2023-06-22T10:55:55;20.20;;;7.50;;
177;SDS011;77;48.792;9.032;2023-06-22T10:58:20;19.37;;;7.20;;
177;SDS011;77;48.792;9.032;2023-06-22T11:00:45;17.43;;;7.57;;
177;SDS011;77;48.792;9.032;2023-06-22T11:03:10;17.97;;;8.37;;
177;SDS011;77;48.792;9.032;2023-06-22T11:05:35;17.53;;;7.90;;
177;SDS011;77;48.792;9.032;2023-06-22T11:08:02;19.10;;;7.50;;
177;SDS011;77;48.792;9.032;2023-06-22T11:10:27;18.70;;;7.70;;
177;SDS011;77;48.792;9.032;2023-06-22T11:12:52;16.27;;;7.60;;
177;SDS011;77;48.792;9.032;2023-06-22T11:15:17;24.77;;;8.30;;
177;SDS011;77;48.792;9.032;2023-06-22T11:17:42;21.07;;;7.53;;
177;SDS011;77;48.792;9.032;2023-06-22T11:20:08;19.47;;;7.57;;
177;SDS011;77;48.792;9.032;2023-06-22T11:22:33;15.10;;;7.17;;
177;SDS011;77;48.792;9.032;2023-06-22T11:24:59;24.60;;;8.23;;
177;SDS011;77;48.792;9.032;2023-06-22T11:27:25;17.30;;;7.70;;
177;SDS011;77;48.792;9.032;2023-06-22T11:29:50;16.83;;;7.90;;
177;SDS011;77;48.792;9.032;2023-06-22T11:32:15;18.47;;;7.70;;
177;SDS011;77;48.792;9.032;2023-06-22T11:34:40;13.77;;;7.30;;
177;SDS011;77;48.792;9.032;2023-06-22T11:37:05;15.90;;;7.77;;
177;SDS011;77;48.792;9.032;2023-06-22T11:39:31;19.33;;;7.53;;
177;SDS011;77;48.792;9.032;2023-06-22T11:41:57;19.13;;;7.87;;
177;SDS011;77;48.792;9.032;2023-06-22T11:44:22;23.33;;;7.60;;
177;SDS011;77;48.792;9.032;2023-06-22T11:46:47;18.83;;;8.33;;
177;SDS011;77;48.792;9.032;2023-06-22T11:49:13;22.20;;;8.20;;
177;SDS011;77;48.792;9.032;2023-06-22T11:51:38;20.77;;;8.17;;
177;SDS011;77;48.792;9.032;2023-06-22T11:54:03;18.47;;;7.87;;
177;SDS011;77;48.792;9.032;2023-06-22T11:56:28;17.30;;;7.40;;
177;SDS011;77;48.792;9.032;2023-06-22T11:58:55;20.23;;;7.53;;
177;SDS011;77;48.792;9.032;2023-06-22T12:01:20;21.53;;;7.60;;
177;SDS011;77;48.792;9.032;2023-06-22T12:03:45;17.40;;;7.70;;
177;SDS011;77;48.792;9.032;2023-06-22T12:06:10;20.13;;;7.57;;
177;SDS011;77;48.792;9.032;2023-06-22T12:08:35;21.70;;;7.90;;
177;SDS011;77;48.792;9.032;2023-06-22T12:11:00;17.90;;;7.73;;
177;SDS011;77;48.792;9.032;2023-06-22T12:13:25;19.83;;;7.53;;
177;SDS011;77;48.792;9.032;2023-06-22T12:15:52;20.80;;;7.70;;
177;SDS011;77;48.792;9.032;2023-06-22T12:18:17;20.73;;;8.17;;
177;SDS011;77;48.792;9.032;2023-06-22T12:20:42;18.67;;;7.73;;
177;SDS011;77;48.792;9.032;2023-06-22T12:23:08;18.13;;;7.47;;
177;SDS011;77;48.792;9.032;2023-06-22T12:25:33;18.10;;;8.20;;
177;SDS011;77;48.792;9.032;2023-06-22T12:27:58;19.67;;;8.20;;
177;SDS011;77;48.792;9.032;2023-06-22T12:30:23;20.67;;;8.03;;
177;SDS011;77;48.792;9.032;2023-06-22T12:32:50;16.63;;;7.50;;
177;SDS011;77;48.792;9.032;2023-06-22T12:35:15;21.80;;;8.00;;
177;SDS011;77;48.792;9.032;2023-06-22T12:37:40;21.30;;;8.13;;
177;SDS011;77;48.792;9.032;2023-06-22T12:40:06;15.90;;;7.87;;
177;SDS011;77;48.792;9.032;2023-06-22T12:42:31;20.33;;;7.60;;
177;SDS011;77;48.792;9.032;2023-06-22T12:44:56;19.93;;;8.00;;
177;SDS011;77;48.792;9.032;2023-06-22T12:47:22;17.90;;;7.97;;
177;SDS011;77;48.792;9.032;2023-06-22T12:49:48;24.70;;;8.63;;
177;SDS011;77;48.792;9.032;2023-06-22T12:52:13;20.97;;;8.27;;
177;SDS011;77;48.792;9.032;2023-06-22T12:54:38;19.50;;;7.83;;
177;SDS011;77;48.792;9.032;2023-06-22T12:57:04;18.90;;;8.30;;
177;SDS011;77;48.792;9.032;2023-06-22T12:59:29;20.07;;;7.70;;
177;SDS011;77;48.792;9.032;2023-06-22T13:01:54;18.80;;;8.60;;
177;SDS011;77;48.792;9.032;2023-06-22T13:04:20;18.50;;;8.87;;
177;SDS011;77;48.792;9.032;2023-06-22T13:06:47;19.67;;;7.80;;
177;SDS011;77;48.792;9.032;2023-06-22T13:09:12;22.13;;;8.60;;
177;SDS011;77;48.792;9.032;2023-06-22T13:11:37;18.93;;;8.30;;
177;SDS011;77;48.792;9.032;2023-06-22T13:14:02;14.10;;;7.93;;
177;SDS011;77;48.792;9.032;2023-06-22T13:16:27;15.37;;;8.13;;
177;SDS011;77;48.792;9.032;2023-06-22T13:18:52;18.50;;;8.23;;
177;SDS011;77;48.792;9.032;2023-06-22T13:21:18;17.57;;;8.40;;
177;SDS011;77;48.792;9.032;2023-06-22T13:23:44;18.80;;;8.40;;
177;SDS011;77;48.792;9.032;2023-06-22T13:26:09;23.00;;;8.77;;
177;SDS011;77;48.792;9.032;2023-06-22T13:28:35;17.20;;;8.30;;
177;SDS011;77;48.792;9.032;2023-06-22T13:31:00;19.10;;;7.73;;
177;SDS011;77;48.792;9.032;2023-06-22T13:33:25;21.10;;;9.27;;
177;SDS011;77;48.792;9.032;2023-06-22T13:35:50;16.83;;;8.60;;
177;SDS011;77;48.792;9.032;2023-06-22T13:38:15;23.40;;;8.90;;
177;SDS011;77;48.792;9.032;2023-06-22T13:40:42;17.70;;;8.20;;
177;SDS011;77;48.792;9.032;2023-06-22T13:43:07;25.20;;;8.70;;
177;SDS011;77;48.792;9.032;2023-06-22T13:45:32;16.97;;;8.60;;
177;SDS011;77;48.792;9.032;2023-06-22T13:47:57;15.87;;;8.47;;
177;SDS011;77;48.792;9.032;2023-06-22T13:50:22;22.17;;;8.23;;
177;SDS011;77;48.792;9.032;2023-06-22T13:52:48;26.43;;;8.33;;
177;SDS011;77;48.792;9.032;2023-06-22T13:55:13;22.10;;;7.80;;
177;SDS011;77;48.792;9.032;2023-06-22T13:57:39;17.43;;;8.00;;
177;SDS011;77;48.792;9.032;2023-06-22T14:00:05;18.03;;;8.23;;
177;SDS011;77;48.792;9.032;2023-06-22T14:02:31;16.50;;;8.00;;
177;SDS011;77;48.792;9.032;2023-06-22T14:04:56;22.23;;;8.43;;
177;SDS011;77;48.792;9.032;2023-06-22T14:07:21;21.07;;;8.30;;
177;SDS011;77;48.792;9.032;2023-06-22T14:09:46;20.13;;;7.70;;
177;SDS011;77;48.792;9.032;2023-06-22T14:12:12;21.83;;;7.70;;
177;SDS011;77;48.792;9.032;2023-06-22T14:14:38;16.73;;;7.40;;
177;SDS011;77;48.792;9.032;2023-06-22T14:17:04;16.50;;;8.10;;
177;SDS011;77;48.792;9.032;2023-06-22T14:19:29;19.80;;;7.60;;
177;SDS011;77;48.792;9.032;2023-06-22T14:21:54;19.50;;;7.87;;
177;SDS011;77;48.792;9.032;2023-06-22T14:24:19;26.90;;;7.87;;
177;SDS011;77;48.792;9.032;2023-06-22T14:26:45;16.57;;;6.87;;
177;SDS011;77;48.792;9.032;2023-06-22T14:29:10;19.97;;;7.40;;
177;SDS011;77;48.792;9.032;2023-06-22T14:31:36;20.13;;;7.07;;
177;SDS011;77;48.792;9.032;2023-06-22T14:34:01;16.03;;;6.90;;
177;SDS011;77;48.792;9.032;2023-06-22T14:36:27;24.80;;;6.93;;
177;SDS011;77;48.792;9.032;2023-06-22T14:38:52;23.80;;;6.30;;
177;SDS011;77;48.792;9.032;2023-06-22T14:41:17;26.00;;;5.83;;
177;SDS011;77;48.792;9.032;2023-06-22T14:43:45;16.90;;;5.10;;
177;SDS011;77;48.792;9.032;2023-06-22T14:46:10;13.47;;;4.83;;
177;SDS011;77;48.792;9.032;2023-06-22T14:48:37;19.30;;;4.77;;
177;SDS011;77;48.792;9.032;2023-06-22T14:51:02;13.87;;;4.43;;
177;SDS011;77;48.792;9.032;2023-06-22T14:53:27;18.80;;;4.80;;
177;SDS011;77;48.792;9.032;2023-06-22T14:55:52;17.57;;;4.73;;
177;SDS011;77;48.792;9.032;2023-06-22T14:58:17;14.93;;;5.00;;
177;SDS011;77;48.792;9.032;2023-06-22T15:00:43;13.40;;;4.50;;
177;SDS011;77;48.792;9.032;2023-06-22T15:03:08;20.60;;;4.90;;
177;SDS011;77;48.792;9.032;2023-06-22T15:05:35;17.27;;;4.53;;
177;SDS011;77;48.792;9.032;2023-06-22T15:08:00;14.63;;;4.53;;
177;SDS011;77;48.792;9.032;2023-06-22T15:10:25;17.70;;;4.77;;
177;SDS011;77;48.792;9.032;2023-06-22T15:12:50;17.60;;;4.40;;
177;SDS011;77;48.792;9.032;2023-06-22T15:15:15;19.77;;;4.73;;
177;SDS011;77;48.792;9.032;2023-06-22T15:17:41;18.73;;;4.70;;
177;SDS011;77;48.792;9.032;2023-06-22T15:20:06;16.37;;;4.90;;
177;SDS011;77;48.792;9.032;2023-06-22T15:22:32;16.20;;;4.50;;
177;SDS011;77;48.792;9.032;2023-06-22T15:24:58;13.33;;;4.57;;
177;SDS011;77;48.792;9.032;2023-06-22T15:27:23;16.20;;;4.50;;